Time;durP1;ratioP1;P1;durP2;ratioP2;P2;SDS_P1;SDS_P2;PMS_P1;PMS_P2;Temp;Humidity;BMP_temperature;BMP_pressure;BME280_temperature;BME280_humidity;BME280_pressure;Samples;Min_cycle;Max_cycle;Signal;HPM_P1;HPM_P2
2022/10/21 00:00:49;;;;;;;5.55;5.05;;;18.40;99.90;;;;;;5053215;28;20218;-70
2022/10/21 00:03:16;;;;;;;5.80;5.20;;;18.40;99.90;;;;;;5037269;28;20174;-71
2022/10/21 00:05:42;;;;;;;6.20;5.10;;;18.40;99.90;;;;;;5053631;28;20273;-70
2022/10/21 00:08:07;;;;;;;6.40;5.28;;;18.40;99.90;;;;;;5053684;28;20278;-71
2022/10/21 00:10:33;;;;;;;5.68;5.00;;;18.40;99.90;;;;;;5053780;28;20255;-70
2022/10/21 00:12:59;;;;;;;5.47;4.97;;;18.40;99.90;;;;;;5037037;28;20214;-70
2022/10/21 00:15:25;;;;;;;5.22;4.72;;;18.40;99.90;;;;;;5053861;28;20193;-71
2022/10/21 00:17:50;;;;;;;5.15;4.43;;;18.40;99.90;;;;;;5054499;28;20178;-71
2022/10/21 00:20:17;;;;;;;5.35;4.85;;;18.40;99.90;;;;;;5036178;28;20584;-71
2022/10/21 00:22:42;;;;;;;6.28;5.05;;;18.40;99.90;;;;;;5036917;28;20179;-70
2022/10/21 00:25:08;;;;;;;5.13;4.63;;;18.40;99.90;;;;;;5053330;28;20729;-70
2022/10/21 00:27:34;;;;;;;5.00;4.60;;;18.40;99.90;;;;;;5070178;28;20186;-70
2022/10/21 00:30:01;;;;;;;5.55;4.72;;;18.40;99.90;;;;;;5052684;28;20220;-70
2022/10/21 00:32:26;;;;;;;5.57;5.07;;;18.40;99.90;;;;;;5036363;28;20210;-70
2022/10/21 00:34:52;;;;;;;5.45;4.78;;;18.40;99.90;;;;;;5053018;28;20197;-70
2022/10/21 00:37:18;;;;;;;5.45;4.95;;;18.40;99.90;;;;;;5052973;28;20189;-70
2022/10/21 00:39:44;;;;;;;5.25;4.75;;;18.40;99.90;;;;;;5052699;28;20208;-70
2022/10/21 00:42:17;;;;;;;5.72;5.03;;;18.40;99.90;;;;;;5054057;28;20182;-70
2022/10/21 00:45:06;;;;;;;6.20;5.32;;;18.40;99.90;;;;;;5052641;28;20214;-71
2022/10/21 00:48:03;;;;;;;5.55;4.95;;;18.40;99.90;;;;;;5040140;28;20584;-69
2022/10/21 00:51:04;;;;;;;5.22;4.72;;;18.40;99.90;;;;;;5073836;28;20197;-70
2022/10/21 00:53:34;;;;;;;5.53;5.03;;;18.40;99.90;;;;;;5062890;28;20254;-70
2022/10/21 00:56:08;;;;;;;5.63;4.90;;;18.40;99.90;;;;;;5052736;28;20183;-70
2022/10/21 00:58:35;;;;;;;6.18;4.78;;;18.40;99.90;;;;;;5052825;28;20170;-70
2022/10/21 01:01:05;;;;;;;5.53;4.93;;;18.40;99.90;;;;;;5052557;28;20206;-69
2022/10/21 01:03:33;;;;;;;5.55;4.82;;;18.40;99.90;;;;;;5052563;28;20193;-70
2022/10/21 01:06:04;;;;;;;5.15;4.65;;;18.40;99.90;;;;;;5052558;28;20191;-70
2022/10/21 01:08:30;;;;;;;4.97;4.47;;;18.40;99.90;;;;;;5052361;28;20663;-70
2022/10/21 01:10:58;;;;;;;4.30;3.95;;;18.40;99.90;;;;;;5052123;28;20209;-70
2022/10/21 01:14:05;;;;;;;4.80;4.35;;;18.40;99.90;;;;;;5035777;28;20206;-70
2022/10/21 01:16:51;;;;;;;5.07;4.40;;;18.40;99.90;;;;;;5052347;28;20174;-70
2022/10/21 01:20:01;;;;;;;5.05;4.47;;;18.40;99.90;;;;;;5053121;28;20283;-70
2022/10/21 01:23:11;;;;;;;4.47;4.07;;;18.40;99.90;;;;;;5052193;28;20174;-70
2022/10/21 01:26:04;;;;;;;5.22;3.83;;;18.40;99.90;;;;;;5052093;28;20224;-70
2022/10/21 01:29:20;;;;;;;4.40;4.00;;;18.40;99.90;;;;;;5035614;28;20183;-70
2022/10/21 01:31:58;;;;;;;4.68;4.25;;;18.40;99.90;;;;;;5052128;28;20175;-70
2022/10/21 01:34:45;;;;;;;4.53;4.13;;;18.40;99.90;;;;;;5051880;28;20285;-70
2022/10/21 01:38:05;;;;;;;4.20;3.90;;;18.40;99.90;;;;;;5035184;28;20177;-71
2022/10/21 01:40:44;;;;;;;4.55;4.10;;;18.40;99.90;;;;;;5012786;28;20335;-70
2022/10/21 01:43:24;;;;;;;4.30;3.83;;;18.40;99.90;;;;;;5051356;28;20193;-71
2022/10/21 01:45:59;;;;;;;4.40;3.83;;;18.40;99.90;;;;;;5051577;28;20190;-70
2022/10/21 01:48:31;;;;;;;4.45;4.00;;;18.40;99.90;;;;;;5052012;28;20209;-70
2022/10/21 01:51:03;;;;;;;3.90;3.50;;;18.40;99.90;;;;;;5051306;28;20202;-70
2022/10/21 01:53:47;;;;;;;4.32;3.85;;;18.40;99.90;;;;;;5051535;28;20245;-70
2022/10/21 01:56:16;;;;;;;4.53;3.67;;;18.40;99.90;;;;;;5034826;28;20181;-70
2022/10/21 01:58:45;;;;;;;4.20;3.80;;;18.40;99.90;;;;;;5051503;28;20189;-70
2022/10/21 02:01:14;;;;;;;4.70;4.22;;;18.40;99.90;;;;;;5051845;28;20190;-71
2022/10/21 02:03:45;;;;;;;4.13;3.65;;;18.40;99.90;;;;;;5051411;28;20202;-70
2022/10/21 02:06:12;;;;;;;3.97;3.58;;;18.40;99.90;;;;;;5051739;28;20189;-70
2022/10/21 02:08:41;;;;;;;4.25;3.42;;;18.40;99.90;;;;;;5037047;28;20240;-70
2022/10/21 02:11:11;;;;;;;5.53;3.70;;;18.40;99.90;;;;;;5051096;28;20186;-70
2022/10/21 02:13:56;;;;;;;5.10;3.55;;;18.40;99.90;;;;;;5068236;28;20217;-70
2022/10/21 02:16:28;;;;;;;3.50;3.20;;;18.40;99.90;;;;;;5051254;28;20224;-70
2022/10/21 02:18:56;;;;;;;3.60;3.30;;;18.40;99.90;;;;;;5050928;28;20167;-70
2022/10/21 02:21:25;;;;;;;3.38;3.08;;;18.40;99.90;;;;;;5051150;28;20174;-70
2022/10/21 02:23:53;;;;;;;3.83;3.35;;;18.40;99.90;;;;;;5051192;28;20185;-70
2022/10/21 02:26:21;;;;;;;4.50;3.60;;;18.40;99.90;;;;;;5050959;28;20194;-70
2022/10/21 02:28:48;;;;;;;3.53;3.20;;;18.40;99.90;;;;;;5034110;28;20193;-69
2022/10/21 02:31:51;;;;;;;3.65;3.35;;;18.40;99.90;;;;;;5051250;28;20191;-70
2022/10/21 02:34:38;;;;;;;3.35;3.05;;;18.40;99.90;;;;;;5052216;28;20253;-70
2022/10/21 02:37:41;;;;;;;3.78;3.45;;;18.40;99.90;;;;;;5050949;28;20178;-70
2022/10/21 02:40:22;;;;;;;3.78;3.22;;;18.40;99.90;;;;;;5050245;28;20213;-70
2022/10/21 02:42:58;;;;;;;6.38;3.50;;;18.40;99.90;;;;;;5051153;28;20180;-69
2022/10/21 02:45:26;;;;;;;3.35;3.05;;;18.40;99.90;;;;;;5050983;28;20196;-70
2022/10/21 02:47:52;;;;;;;3.72;3.13;;;18.40;99.90;;;;;;5052411;28;20186;-70
2022/10/21 02:50:18;;;;;;;4.07;2.90;;;18.40;99.90;;;;;;5034303;28;20210;-70
2022/10/21 02:52:43;;;;;;;4.20;3.15;;;18.40;99.90;;;;;;5052263;28;20201;-70
2022/10/21 02:55:09;;;;;;;3.25;2.95;;;18.40;99.90;;;;;;5053266;28;20182;-70
2022/10/21 02:57:35;;;;;;;4.30;3.10;;;18.40;99.90;;;;;;5055280;28;20625;-70
2022/10/21 03:00:01;;;;;;;4.05;3.30;;;18.40;99.90;;;;;;5079538;22;20234;-67
2022/10/21 03:02:26;;;;;;;3.22;2.80;;;18.40;99.90;;;;;;5038362;28;20627;-67
2022/10/21 03:04:52;;;;;;;3.28;2.97;;;18.40;99.90;;;;;;5054997;28;20186;-67
2022/10/21 03:07:18;;;;;;;3.08;2.60;;;18.40;99.90;;;;;;5054653;28;20267;-67
2022/10/21 03:09:43;;;;;;;3.70;3.03;;;18.40;99.90;;;;;;5054414;28;20209;-67
2022/10/21 03:12:09;;;;;;;3.40;2.53;;;18.40;99.90;;;;;;5054457;28;20186;-67
2022/10/21 03:14:35;;;;;;;3.25;2.72;;;18.40;99.90;;;;;;5054816;28;20183;-67
2022/10/21 03:17:00;;;;;;;3.22;2.63;;;18.40;99.90;;;;;;5054952;28;20171;-67
2022/10/21 03:19:26;;;;;;;3.67;2.85;;;18.40;99.90;;;;;;5054413;28;20202;-67
2022/10/21 03:21:52;;;;;;;3.47;3.17;;;18.40;99.90;;;;;;5071232;28;20649;-67
2022/10/21 03:24:17;;;;;;;3.67;2.85;;;18.40;99.90;;;;;;5070994;28;20186;-67
2022/10/21 03:26:43;;;;;;;3.50;3.10;;;18.40;99.90;;;;;;5054438;28;20186;-67
2022/10/21 03:29:09;;;;;;;4.03;2.83;;;18.40;99.90;;;;;;5037891;28;20277;-67
2022/10/21 03:31:35;;;;;;;3.15;2.80;;;18.40;99.90;;;;;;5054608;28;20190;-67
2022/10/21 03:34:01;;;;;;;3.33;2.78;;;18.40;99.90;;;;;;5054362;28;20219;-67
2022/10/21 03:36:27;;;;;;;3.10;2.80;;;18.40;99.90;;;;;;5054179;28;20187;-67
2022/10/21 03:38:52;;;;;;;3.33;2.83;;;18.40;99.90;;;;;;5053970;28;20198;-67
2022/10/21 03:41:18;;;;;;;3.22;2.92;;;18.40;99.90;;;;;;5053700;28;20207;-67
2022/10/21 03:43:44;;;;;;;2.90;2.60;;;18.40;99.90;;;;;;5054062;28;20195;-66
2022/10/21 03:46:09;;;;;;;4.03;2.85;;;18.40;99.90;;;;;;5070434;28;20198;-67
2022/10/21 03:48:35;;;;;;;3.50;2.97;;;18.40;99.90;;;;;;5070873;28;20190;-67
2022/10/21 03:51:01;;;;;;;3.22;2.85;;;18.40;99.90;;;;;;5054785;28;20293;-67
2022/10/21 03:53:27;;;;;;;3.25;2.58;;;18.40;99.90;;;;;;5053828;28;20195;-67
2022/10/21 03:55:52;;;;;;;2.97;2.60;;;18.40;99.90;;;;;;5070773;28;20186;-67
2022/10/21 03:58:18;;;;;;;3.10;2.58;;;18.40;99.90;;;;;;5070480;28;20191;-67
2022/10/21 04:00:44;;;;;;;3.13;2.60;;;18.40;99.90;;;;;;5053414;28;20230;-67
2022/10/21 04:03:10;;;;;;;2.88;2.40;;;18.40;99.90;;;;;;5053690;28;20190;-67
2022/10/21 04:05:35;;;;;;;3.45;2.80;;;18.40;99.90;;;;;;5053493;28;20186;-67
2022/10/21 04:08:01;;;;;;;4.55;2.70;;;18.40;99.90;;;;;;5053912;28;20338;-67
2022/10/21 04:10:27;;;;;;;3.05;2.63;;;18.40;99.90;;;;;;5053435;28;20202;-67
2022/10/21 04:12:53;;;;;;;3.60;2.80;;;18.40;99.90;;;;;;5053565;28;20214;-67
2022/10/21 04:15:18;;;;;;;3.10;2.50;;;18.40;99.90;;;;;;5053580;28;20349;-67
2022/10/21 04:17:45;;;;;;;3.67;3.10;;;18.40;99.90;;;;;;5070431;28;20273;-67
2022/10/21 04:20:12;;;;;;;3.88;2.75;;;18.40;99.90;;;;;;5053333;28;20281;-68
2022/10/21 04:22:38;;;;;;;3.85;2.70;;;18.40;99.90;;;;;;5054505;28;20187;-68
2022/10/21 04:25:04;;;;;;;3.45;3.03;;;18.40;99.90;;;;;;5070074;28;20193;-68
2022/10/21 04:27:29;;;;;;;2.60;2.40;;;18.40;99.90;;;;;;5053164;28;20186;-68
2022/10/21 04:29:55;;;;;;;3.08;2.78;;;18.40;99.90;;;;;;5036289;28;20306;-68
2022/10/21 04:32:21;;;;;;;3.95;3.00;;;18.40;99.90;;;;;;5052990;28;20236;-68
2022/10/21 04:34:46;;;;;;;3.25;2.97;;;18.40;99.90;;;;;;5052872;28;20208;-68
2022/10/21 04:37:12;;;;;;;3.67;2.92;;;18.40;99.90;;;;;;5053224;28;20189;-68
2022/10/21 04:39:38;;;;;;;3.67;3.13;;;18.40;99.90;;;;;;5052255;28;20206;-68
2022/10/21 04:42:04;;;;;;;3.83;3.20;;;18.30;99.90;;;;;;5052883;28;20183;-68
2022/10/21 04:44:30;;;;;;;3.15;2.85;;;18.40;99.90;;;;;;5069028;28;20182;-67
2022/10/21 04:46:55;;;;;;;3.53;3.10;;;18.40;99.90;;;;;;5053077;28;20194;-68
2022/10/21 04:49:21;;;;;;;4.53;3.20;;;18.40;99.90;;;;;;5036059;28;20179;-67
2022/10/21 04:51:47;;;;;;;2.95;2.65;;;18.40;99.90;;;;;;5052674;28;20569;-67
2022/10/21 04:54:13;;;;;;;3.33;2.97;;;18.40;99.90;;;;;;5052335;28;20218;-66
2022/10/21 04:56:40;;;;;;;3.58;3.00;;;18.40;99.90;;;;;;5052546;28;20187;-67
2022/10/21 04:59:06;;;;;;;3.20;2.80;;;18.40;99.90;;;;;;5035800;28;20190;-68
2022/10/21 05:01:32;;;;;;;3.60;2.72;;;18.40;99.90;;;;;;5052429;28;20592;-68
2022/10/21 05:03:58;;;;;;;4.20;3.10;;;18.40;99.90;;;;;;5035875;28;20186;-68
2022/10/21 05:06:23;;;;;;;2.60;2.40;;;18.40;99.90;;;;;;5069273;28;20244;-67
2022/10/21 05:08:49;;;;;;;3.42;2.53;;;18.40;99.90;;;;;;5052193;28;20197;-68
2022/10/21 05:11:15;;;;;;;3.53;2.97;;;18.40;99.90;;;;;;5051806;28;20206;-66
2022/10/21 05:13:41;;;;;;;3.22;2.80;;;18.40;99.90;;;;;;5052515;28;20245;-67
2022/10/21 05:16:06;;;;;;;5.00;2.63;;;18.40;99.90;;;;;;5034845;28;20183;-68
2022/10/21 05:18:32;;;;;;;3.05;2.70;;;18.40;99.90;;;;;;5031200;28;20701;-67
2022/10/21 05:20:59;;;;;;;3.28;2.97;;;18.40;99.90;;;;;;5015141;28;20268;-67
2022/10/21 05:23:25;;;;;;;3.60;2.63;;;18.40;99.90;;;;;;5015180;28;20673;-66
2022/10/21 05:25:52;;;;;;;6.30;2.85;;;18.40;99.90;;;;;;5031986;28;20191;-67
2022/10/21 05:28:18;;;;;;;2.88;2.40;;;18.40;99.90;;;;;;5031646;28;20187;-67
2022/10/21 05:30:44;;;;;;;3.72;2.50;;;18.40;99.90;;;;;;5015026;28;20207;-67
2022/10/21 05:33:10;;;;;;;4.00;2.95;;;18.40;99.90;;;;;;5031461;28;20277;-67
2022/10/21 05:35:36;;;;;;;5.63;2.80;;;18.40;99.90;;;;;;5015159;28;20218;-67
2022/10/21 05:38:03;;;;;;;4.60;2.88;;;18.40;99.90;;;;;;5031436;28;20187;-67
2022/10/21 05:40:30;;;;;;;3.53;2.78;;;18.30;99.90;;;;;;5031028;28;20232;-67
2022/10/21 05:42:56;;;;;;;3.22;2.70;;;18.40;99.90;;;;;;5031392;28;20241;-67
2022/10/21 05:45:21;;;;;;;3.35;2.70;;;18.40;99.90;;;;;;5032576;28;20251;-67
2022/10/21 05:47:47;;;;;;;3.17;2.55;;;18.40;99.90;;;;;;5014940;28;20202;-67
2022/10/21 05:50:13;;;;;;;3.08;2.83;;;18.40;99.90;;;;;;5031083;28;20214;-67
2022/10/21 05:52:40;;;;;;;3.67;2.80;;;18.40;99.90;;;;;;5030907;28;20214;-67
2022/10/21 05:55:07;;;;;;;3.65;2.70;;;18.40;99.90;;;;;;5031232;28;20206;-67
2022/10/21 05:57:35;;;;;;;4.07;2.90;;;18.40;99.90;;;;;;5031161;28;20187;-67
2022/10/21 06:00:02;;;;;;;4.40;3.13;;;18.40;99.90;;;;;;5030902;28;20290;-67
2022/10/21 06:02:31;;;;;;;4.00;2.88;;;18.30;99.90;;;;;;5031260;28;20567;-67
2022/10/21 06:04:57;;;;;;;4.90;3.33;;;18.40;99.90;;;;;;5031029;28;20250;-68
2022/10/21 06:07:23;;;;;;;5.35;3.55;;;18.40;99.90;;;;;;5032091;28;20268;-67
2022/10/21 06:09:49;;;;;;;3.75;2.75;;;18.40;99.90;;;;;;5031067;28;20211;-67
2022/10/21 06:12:14;;;;;;;4.28;3.10;;;18.40;99.90;;;;;;5031150;28;20194;-67
2022/10/21 06:14:40;;;;;;;3.83;3.15;;;18.40;99.90;;;;;;5030985;28;20198;-67
2022/10/21 06:17:06;;;;;;;3.58;3.17;;;18.40;99.90;;;;;;5014361;28;20183;-67
2022/10/21 06:19:31;;;;;;;4.63;3.50;;;18.40;99.90;;;;;;5031788;28;20294;-67
2022/10/21 06:21:57;;;;;;;3.83;3.05;;;18.40;99.90;;;;;;5030756;28;20207;-67
2022/10/21 06:24:24;;;;;;;4.55;3.33;;;18.40;99.90;;;;;;5030839;28;20241;-67
2022/10/21 06:26:50;;;;;;;4.15;2.97;;;18.40;99.90;;;;;;5032086;28;20191;-67
2022/10/21 06:29:17;;;;;;;4.65;3.17;;;18.40;99.90;;;;;;5030407;28;20195;-67
2022/10/21 06:31:44;;;;;;;5.07;3.13;;;18.40;99.90;;;;;;5030784;28;20178;-67
2022/10/21 06:34:10;;;;;;;4.82;3.00;;;18.40;99.90;;;;;;5014069;28;20215;-67
2022/10/21 06:36:39;;;;;;;5.63;3.22;;;18.40;99.90;;;;;;5031096;28;20249;-67
2022/10/21 06:39:06;;;;;;;5.53;3.92;;;18.40;99.90;;;;;;5043769;28;20228;-67
2022/10/21 06:41:33;;;;;;;3.60;2.90;;;18.40;99.90;;;;;;5063955;28;20175;-67
2022/10/21 06:43:59;;;;;;;4.55;2.83;;;18.40;99.90;;;;;;5067161;28;20221;-67
2022/10/21 06:46:25;;;;;;;3.70;2.97;;;18.40;99.90;;;;;;5050379;28;20220;-67
2022/10/21 06:48:51;;;;;;;4.90;3.33;;;18.40;99.90;;;;;;5067147;28;20187;-67
2022/10/21 06:51:20;;;;;;;4.82;2.95;;;18.40;99.90;;;;;;5050252;28;20199;-67
2022/10/21 06:53:51;;;;;;;4.55;2.88;;;18.40;99.90;;;;;;5050386;28;20214;-67
2022/10/21 06:56:19;;;;;;;3.85;3.20;;;18.40;99.90;;;;;;5050496;28;20248;-67
2022/10/21 06:58:47;;;;;;;4.35;3.40;;;18.40;99.90;;;;;;5066964;28;20190;-67
2022/10/21 07:01:35;;;;;;;4.72;3.65;;;18.40;99.90;;;;;;5050247;28;20575;-67
2022/10/21 07:04:03;;;;;;;4.15;3.28;;;18.40;99.90;;;;;;5050234;28;20194;-67
2022/10/21 07:06:29;;;;;;;3.47;3.00;;;18.40;99.90;;;;;;5030105;28;20217;-67
2022/10/21 07:08:55;;;;;;;3.95;3.50;;;18.40;99.90;;;;;;5030417;28;20187;-67
2022/10/21 07:11:21;;;;;;;4.05;3.30;;;18.40;99.90;;;;;;5031171;28;20203;-67
2022/10/21 07:13:47;;;;;;;3.65;3.15;;;18.40;99.90;;;;;;5046877;28;20338;-67
2022/10/21 07:16:27;;;;;;;4.05;3.65;;;18.40;99.90;;;;;;5030234;28;20184;-67
2022/10/21 07:18:54;;;;;;;4.28;3.40;;;18.40;99.90;;;;;;5046952;28;20183;-68
2022/10/21 07:21:22;;;;;;;4.38;3.15;;;18.40;99.90;;;;;;5030014;28;20591;-67
2022/10/21 07:23:50;;;;;;;4.20;3.17;;;18.40;99.90;;;;;;5046931;28;20658;-67
2022/10/21 07:26:18;;;;;;;3.80;3.40;;;18.40;99.90;;;;;;5046894;28;20197;-67
2022/10/21 07:28:46;;;;;;;3.88;3.15;;;18.40;99.90;;;;;;5046760;28;20191;-67
2022/10/21 07:31:14;;;;;;;4.30;3.33;;;18.40;99.90;;;;;;5031243;28;20298;-67
2022/10/21 07:33:40;;;;;;;3.65;3.25;;;18.40;99.90;;;;;;5031288;28;20211;-67
2022/10/21 07:36:15;;;;;;;4.40;2.78;;;18.40;99.90;;;;;;5030096;28;20190;-67
2022/10/21 07:38:45;;;;;;;6.32;3.25;;;18.40;99.90;;;;;;5046708;28;20193;-67
2022/10/21 07:41:24;;;;;;;5.57;3.40;;;18.40;99.90;;;;;;5032186;28;20195;-67
2022/10/21 07:43:52;;;;;;;4.03;3.63;;;18.40;99.90;;;;;;5034900;28;20255;-67
2022/10/21 07:46:20;;;;;;;3.72;3.03;;;18.40;99.90;;;;;;5034718;28;20207;-67
2022/10/21 07:48:46;;;;;;;3.92;3.00;;;18.40;99.90;;;;;;5034774;28;20183;-67
2022/10/21 07:51:17;;;;;;;4.05;2.75;;;18.40;99.90;;;;;;5033300;28;20207;-67
2022/10/21 07:53:43;;;;;;;5.72;3.30;;;18.40;99.90;;;;;;5050070;28;20238;-67
2022/10/21 07:56:16;;;;;;;4.50;3.25;;;18.40;99.90;;;;;;5050101;28;20214;-67
2022/10/21 07:58:43;;;;;;;4.93;2.95;;;18.40;99.90;;;;;;5016759;28;20274;-67
2022/10/21 08:01:10;;;;;;;3.33;2.92;;;18.40;99.90;;;;;;5049671;28;20207;-67
2022/10/21 08:03:36;;;;;;;4.28;3.08;;;18.40;99.90;;;;;;5033169;28;20187;-67
2022/10/21 08:06:03;;;;;;;3.88;2.97;;;18.40;99.90;;;;;;5033483;28;20270;-67
2022/10/21 08:08:31;;;;;;;5.82;3.20;;;18.40;99.90;;;;;;5049773;28;20198;-67
2022/10/21 08:10:57;;;;;;;3.63;2.88;;;18.40;99.90;;;;;;5032852;28;20279;-67
2022/10/21 08:13:23;;;;;;;4.18;3.15;;;18.40;99.90;;;;;;5049662;28;20306;-67
2022/10/21 08:15:52;;;;;;;4.03;2.70;;;18.40;99.90;;;;;;5033118;28;20278;-67
2022/10/21 08:18:20;;;;;;;3.83;3.15;;;18.40;99.90;;;;;;5034329;28;20175;-67
2022/10/21 08:20:47;;;;;;;4.82;3.05;;;18.40;99.90;;;;;;5032873;28;20207;-67
2022/10/21 08:23:19;;;;;;;3.10;2.67;;;18.40;99.90;;;;;;5049675;28;20186;-67
2022/10/21 08:25:55;;;;;;;3.95;3.03;;;18.40;99.90;;;;;;5032942;28;20202;-67
2022/10/21 08:28:24;;;;;;;2.90;2.60;;;18.40;99.90;;;;;;5049521;28;20194;-67
2022/10/21 08:30:50;;;;;;;3.17;2.88;;;18.40;99.90;;;;;;5032493;28;20698;-67
2022/10/21 08:33:16;;;;;;;4.10;2.80;;;18.40;99.90;;;;;;5039937;28;20207;-67
2022/10/21 08:35:43;;;;;;;3.33;2.70;;;18.40;99.90;;;;;;5052659;28;20186;-67
2022/10/21 08:38:10;;;;;;;3.17;2.65;;;18.40;99.90;;;;;;5052624;28;20276;-67
2022/10/21 08:40:44;;;;;;;4.80;2.97;;;18.40;99.90;;;;;;5052005;28;20210;-67
2022/10/21 08:43:26;;;;;;;2.95;2.58;;;18.40;99.90;;;;;;5035816;28;20208;-67
2022/10/21 08:46:01;;;;;;;3.40;2.88;;;18.40;99.90;;;;;;5035920;28;20191;-67
2022/10/21 08:48:45;;;;;;;3.75;2.58;;;18.40;99.90;;;;;;5052479;28;20202;-67
2022/10/21 08:51:48;;;;;;;3.15;2.83;;;18.40;99.90;;;;;;5052242;28;20209;-67
2022/10/21 08:54:28;;;;;;;3.15;2.70;;;18.40;99.90;;;;;;5035662;28;20214;-67
2022/10/21 08:56:59;;;;;;;2.90;2.63;;;18.40;99.90;;;;;;5052098;28;20185;-67
2022/10/21 09:02:42;;;;;;;4.15;2.50;;;18.40;99.90;;;;;;5012518;28;20223;-71
2022/10/21 09:05:19;;;;;;;2.60;2.40;;;18.40;99.90;;;;;;5012696;28;20200;-71
2022/10/21 09:08:22;;;;;;;3.70;2.78;;;18.40;99.90;;;;;;5012593;28;20188;-71
2022/10/21 09:11:30;;;;;;;3.08;2.80;;;18.40;99.90;;;;;;4995795;28;20447;-71
2022/10/21 09:14:07;;;;;;;3.60;2.80;;;18.40;99.90;;;;;;4995776;28;20228;-71
2022/10/21 09:17:04;;;;;;;4.45;2.67;;;18.40;99.90;;;;;;5013265;28;20253;-71
2022/10/21 09:19:42;;;;;;;3.08;2.60;;;18.40;99.90;;;;;;4995606;28;20208;-70
2022/10/21 09:22:36;;;;;;;3.00;2.55;;;18.40;99.90;;;;;;5013531;28;20184;-71
2022/10/21 09:25:12;;;;;;;3.17;2.88;;;18.40;99.90;;;;;;4982667;28;20313;-71
2022/10/21 09:27:38;;;;;;;2.85;2.60;;;18.50;99.90;;;;;;4995684;28;20205;-71
2022/10/21 09:30:07;;;;;;;3.45;2.55;;;18.50;99.90;;;;;;4995404;28;20212;-71
2022/10/21 09:32:40;;;;;;;2.50;2.30;;;18.40;99.90;;;;;;5012891;28;20183;-71
2022/10/21 09:35:22;;;;;;;3.08;2.78;;;18.50;99.90;;;;;;4995345;28;20187;-71
2022/10/21 09:38:04;;;;;;;3.05;2.40;;;18.50;99.90;;;;;;5011929;28;20263;-71
2022/10/21 09:40:30;;;;;;;3.20;2.78;;;18.50;99.90;;;;;;5011885;28;20200;-71
2022/10/21 09:43:00;;;;;;;3.22;2.58;;;18.50;99.90;;;;;;5013004;28;20192;-71
2022/10/21 09:45:39;;;;;;;3.63;2.47;;;18.50;99.90;;;;;;5011536;28;20265;-71
2022/10/21 09:48:16;;;;;;;3.35;2.75;;;18.50;99.90;;;;;;5011577;28;20191;-71
2022/10/21 09:50:46;;;;;;;3.50;2.50;;;18.50;99.90;;;;;;4994772;28;20211;-71
2022/10/21 09:53:22;;;;;;;2.95;2.50;;;18.50;99.90;;;;;;5011391;28;20301;-71
2022/10/21 09:55:55;;;;;;;3.05;2.75;;;18.50;99.90;;;;;;5011642;28;20192;-71
2022/10/21 09:58:26;;;;;;;2.55;2.05;;;18.50;99.90;;;;;;5011514;28;20246;-71
2022/10/21 10:00:53;;;;;;;3.28;2.60;;;18.50;99.90;;;;;;4994898;28;20266;-71
2022/10/21 10:03:51;;;;;;;3.40;2.25;;;18.50;99.90;;;;;;4994888;28;20203;-71
2022/10/21 10:06:41;;;;;;;2.97;2.30;;;18.50;99.90;;;;;;5011474;28;20192;-71
2022/10/21 10:09:25;;;;;;;2.75;2.47;;;18.50;99.90;;;;;;5012551;28;20198;-71
2022/10/21 10:12:15;;;;;;;2.75;2.15;;;18.50;99.90;;;;;;4994662;28;20739;-71
2022/10/21 10:14:44;;;;;;;2.63;2.15;;;18.50;99.90;;;;;;4978913;28;20204;-71
2022/10/21 10:17:22;;;;;;;2.75;2.53;;;18.50;99.90;;;;;;5011128;28;20192;-71
2022/10/21 10:20:03;;;;;;;3.70;2.60;;;18.50;99.90;;;;;;5011322;28;20179;-70
2022/10/21 10:22:44;;;;;;;3.70;2.40;;;18.50;99.90;;;;;;5011612;28;20234;-71
2022/10/21 10:25:13;;;;;;;3.13;2.30;;;18.50;99.90;;;;;;4995180;28;20247;-71
2022/10/21 10:28:08;;;;;;;3.10;2.53;;;18.50;99.90;;;;;;4995255;28;20262;-71
2022/10/21 10:30:37;;;;;;;2.30;2.10;;;18.50;99.90;;;;;;4978223;28;20208;-71
2022/10/21 10:33:15;;;;;;;4.07;2.33;;;18.50;99.90;;;;;;5011638;28;20294;-71
2022/10/21 10:35:51;;;;;;;2.33;2.13;;;18.50;99.90;;;;;;5011386;28;20637;-71
2022/10/21 10:38:36;;;;;;;3.50;2.08;;;18.50;99.90;;;;;;4994884;28;20188;-71
2022/10/21 10:41:14;;;;;;;3.03;2.55;;;18.50;99.90;;;;;;4980343;28;20209;-70
2022/10/21 10:43:52;;;;;;;3.22;2.40;;;18.50;99.90;;;;;;4959768;28;20246;-71
2022/10/21 10:46:28;;;;;;;3.42;2.38;;;18.50;99.90;;;;;;5002411;28;20231;-71
2022/10/21 10:48:57;;;;;;;2.42;2.00;;;18.50;99.90;;;;;;5008085;28;20185;-70
2022/10/21 10:51:33;;;;;;;2.72;2.40;;;18.50;99.90;;;;;;4999784;28;20290;-71
2022/10/21 10:54:26;;;;;;;2.35;2.15;;;18.50;99.90;;;;;;5003109;28;20302;-71
2022/10/21 10:57:23;;;;;;;2.55;2.20;;;18.50;99.90;;;;;;4995131;28;20188;-71
2022/10/21 11:00:14;;;;;;;2.47;2.20;;;18.50;99.90;;;;;;5010813;28;20204;-70
2022/10/21 11:02:59;;;;;;;2.95;2.33;;;18.50;99.90;;;;;;5011383;28;20195;-71
2022/10/21 11:05:36;;;;;;;3.08;2.30;;;18.50;99.90;;;;;;4994983;28;20187;-71
2022/10/21 11:08:20;;;;;;;2.08;1.85;;;18.50;99.90;;;;;;4994843;28;20176;-71
2022/10/21 11:11:00;;;;;;;2.60;2.40;;;18.50;99.90;;;;;;4978615;28;20294;-71
2022/10/21 11:13:27;;;;;;;2.65;2.28;;;18.50;99.90;;;;;;5005718;28;20219;-71
2022/10/21 11:15:59;;;;;;;2.95;2.15;;;18.50;99.90;;;;;;5012794;28;20184;-71
2022/10/21 11:19:05;;;;;;;2.88;2.35;;;18.50;99.90;;;;;;5012810;28;20191;-71
2022/10/21 11:21:55;;;;;;;2.38;2.10;;;18.50;99.90;;;;;;4991047;28;20204;-71
2022/10/21 11:24:38;;;;;;;2.22;2.03;;;18.50;99.90;;;;;;5007316;28;20223;-71
2022/10/21 11:27:55;;;;;;;2.85;2.65;;;18.50;99.90;;;;;;5005574;28;20184;-70
2022/10/21 11:30:52;;;;;;;3.10;2.13;;;18.50;99.90;;;;;;4963213;28;20219;-71
2022/10/21 11:33:36;;;;;;;2.65;1.95;;;18.50;99.90;;;;;;4962736;28;20216;-71
2022/10/21 11:36:25;;;;;;;2.55;2.17;;;18.50;99.90;;;;;;4996273;28;20173;-71
2022/10/21 11:39:32;;;;;;;2.50;2.30;;;18.50;99.90;;;;;;4978581;28;20176;-71
2022/10/21 11:42:30;;;;;;;3.78;2.05;;;18.50;99.90;;;;;;4978110;28;20271;-71
2022/10/21 11:45:04;;;;;;;2.80;2.13;;;18.50;99.90;;;;;;4978540;28;20220;-71
2022/10/21 11:47:55;;;;;;;3.40;2.20;;;18.50;99.90;;;;;;4995878;28;20216;-71
2022/10/21 11:50:32;;;;;;;2.17;1.83;;;18.50;99.90;;;;;;4978095;28;20208;-71
2022/10/21 11:53:13;;;;;;;2.47;2.03;;;18.50;99.90;;;;;;4962267;28;20299;-71
2022/10/21 11:56:03;;;;;;;3.00;2.20;;;18.50;99.90;;;;;;4962111;28;20185;-71
2022/10/21 11:59:10;;;;;;;2.50;2.00;;;18.60;99.90;;;;;;4978239;28;20216;-71
2022/10/21 12:02:16;;;;;;;2.90;2.20;;;18.60;99.90;;;;;;4927669;28;20218;-71
2022/10/21 12:05:14;;;;;;;2.28;2.08;;;18.50;99.90;;;;;;4955373;28;20182;-70
2022/10/21 12:08:01;;;;;;;2.50;1.92;;;18.60;99.90;;;;;;5016395;28;20199;-71
2022/10/21 12:10:33;;;;;;;2.83;2.00;;;18.60;99.90;;;;;;5017078;28;20690;-70
2022/10/21 12:13:35;;;;;;;2.17;1.98;;;18.50;99.90;;;;;;5016987;28;20227;-71
2022/10/21 12:16:11;;;;;;;2.20;1.90;;;18.50;99.90;;;;;;5030959;28;20195;-71
2022/10/21 12:18:49;;;;;;;3.00;2.17;;;18.60;99.90;;;;;;5017323;28;20183;-70
2022/10/21 12:21:20;;;;;;;2.50;2.08;;;18.60;99.90;;;;;;5034476;28;20206;-71
2022/10/21 12:23:56;;;;;;;2.28;2.08;;;18.60;99.90;;;;;;5016373;28;20198;-71
2022/10/21 12:26:35;;;;;;;2.10;1.90;;;18.50;99.90;;;;;;5015995;28;20609;-71
2022/10/21 12:29:18;;;;;;;2.03;1.65;;;18.50;99.90;;;;;;5016506;28;20181;-71
2022/10/21 12:31:57;;;;;;;2.53;2.00;;;18.50;99.90;;;;;;4991947;28;20688;-71
2022/10/21 12:34:23;;;;;;;2.90;1.92;;;18.50;99.90;;;;;;4996436;28;20212;-71
2022/10/21 12:36:53;;;;;;;2.38;1.70;;;18.60;99.90;;;;;;4993092;28;20185;-71
2022/10/21 12:39:34;;;;;;;1.67;1.58;;;18.60;99.90;;;;;;4993645;28;20195;-71
2022/10/21 12:42:27;;;;;;;2.38;1.85;;;18.50;99.90;;;;;;4992955;28;20220;-71
2022/10/21 12:44:53;;;;;;;2.10;1.90;;;18.50;99.90;;;;;;4993079;28;20185;-71
2022/10/21 12:47:42;;;;;;;2.75;1.80;;;18.50;99.90;;;;;;4976944;28;20289;-71
2022/10/21 12:50:14;;;;;;;2.38;1.75;;;18.50;99.90;;;;;;4992784;28;20212;-71
2022/10/21 12:52:42;;;;;;;3.00;2.08;;;18.50;99.90;;;;;;4992924;28;20192;-71
2022/10/21 12:55:26;;;;;;;2.08;1.70;;;18.60;99.90;;;;;;5003668;28;20239;-71
2022/10/21 12:58:05;;;;;;;1.80;1.65;;;18.50;99.90;;;;;;4972622;28;20207;-71
2022/10/21 13:00:30;;;;;;;2.88;1.90;;;18.50;99.90;;;;;;4992718;28;20208;-71
2022/10/21 13:03:44;;;;;;;2.45;1.60;;;18.50;99.90;;;;;;4976760;28;20231;-71
2022/10/21 13:06:11;;;;;;;2.17;1.88;;;18.60;99.90;;;;;;4993987;28;20199;-71
2022/10/21 13:08:52;;;;;;;2.17;1.63;;;18.60;99.90;;;;;;4993038;28;20232;-71
2022/10/21 13:11:21;;;;;;;2.95;1.77;;;18.60;99.90;;;;;;4992443;28;20212;-71
2022/10/21 13:14:25;;;;;;;1.73;1.63;;;18.60;99.90;;;;;;4994066;28;20217;-71
2022/10/21 13:16:50;;;;;;;1.90;1.58;;;18.60;99.90;;;;;;4976822;28;20185;-71
2022/10/21 13:19:16;;;;;;;2.08;1.70;;;18.60;99.90;;;;;;4962378;28;20612;-71
2022/10/21 13:21:59;;;;;;;3.60;1.90;;;18.50;99.90;;;;;;5023351;28;20254;-71
2022/10/21 13:24:31;;;;;;;2.85;1.58;;;18.60;99.90;;;;;;5015708;28;20187;-71